Time;durP1;ratioP1;P1;durP2;ratioP2;P2;SDS_P1;SDS_P2;PMS_P1;PMS_P2;Temp;Humidity;BMP_temperature;BMP_pressure;BME280_temperature;BME280_humidity;BME280_pressure;Samples;Min_cycle;Max_cycle;Signal;HPM_P1;HPM_P2
2023/06/24 00:01:00;;;;;;;;;12.33;10.67;;;;;19.36;100.00;99703.88;6280103;20;3518010;-56
2023/06/24 00:03:28;;;;;;;;;10.00;10.00;;;;;19.35;100.00;99715.75;6311754;20;3489884;-54
2023/06/24 00:05:57;;;;;;;;;13.33;10.67;;;;;19.40;100.00;99720.75;6309678;20;3519490;-53
2023/06/24 00:08:34;;;;;;;;;11.00;11.00;;;;;19.42;100.00;99714.16;6310563;20;2483614;-54
2023/06/24 00:11:03;;;;;;;;;15.33;15.00;;;;;19.43;100.00;99718.59;6283178;20;3519424;-55
2023/06/24 00:13:30;;;;;;;;;13.50;11.50;;;;;19.36;100.00;99731.09;6312719;20;2483759;-57
2023/06/24 00:15:58;;;;;;;;;17.00;13.00;;;;;19.26;100.00;99735.72;6286799;20;2798309;-58
2023/06/24 00:18:29;;;;;;;;;11.00;10.67;;;;;19.28;100.00;99730.97;6314235;20;2785717;-56
2023/06/24 00:20:57;;;;;;;;;10.67;10.67;;;;;19.16;100.00;99741.19;6310655;20;3512754;-53
2023/06/24 00:23:25;;;;;;;;;14.67;14.67;;;;;19.20;100.00;99756.22;6314749;20;3534757;-58
2023/06/24 00:25:54;;;;;;;;;14.00;11.50;;;;;19.14;100.00;99753.22;6311609;20;2498205;-57
2023/06/24 00:28:23;;;;;;;;;14.00;12.00;;;;;18.93;100.00;99757.03;6278367;20;3513178;-55
2023/06/24 00:30:50;;;;;;;;;15.00;14.00;;;;;18.75;100.00;99758.78;6305151;20;2492035;-57
2023/06/24 00:33:20;;;;;;;;;13.00;12.67;;;;;18.91;100.00;99774.50;6279102;20;3525417;-56
2023/06/24 00:35:48;;;;;;;;;12.33;12.33;;;;;18.89;100.00;99766.47;6276506;20;3509738;-56
2023/06/24 00:38:16;;;;;;;;;13.00;12.67;;;;;19.05;100.00;99769.44;6310853;20;3532548;-56
2023/06/24 00:40:46;;;;;;;;;13.00;11.00;;;;;19.08;100.00;99777.31;6278679;20;3518105;-55
2023/06/24 00:43:13;;;;;;;;;11.50;11.50;;;;;19.17;100.00;99780.13;6278642;20;2484133;-54
2023/06/24 00:45:41;;;;;;;;;14.33;12.67;;;;;18.85;100.00;99765.03;6276458;20;3543092;-57
2023/06/24 00:48:10;;;;;;;;;18.00;16.50;;;;;18.92;100.00;99779.78;6279605;20;2830541;-57
2023/06/24 00:50:37;;;;;;;;;18.50;16.00;;;;;18.97;100.00;99774.75;6280642;20;2483743;-59
2023/06/24 00:53:04;;;;;;;;;14.00;14.00;;;;;18.80;100.00;99757.31;6282768;20;2806562;-54
2023/06/24 00:55:33;;;;;;;;;13.67;12.67;;;;;18.71;100.00;99743.69;6278348;20;3538851;-53
2023/06/24 00:58:01;;;;;;;;;14.00;14.00;;;;;18.71;100.00;99736.38;6282680;20;2500906;-58
2023/06/24 01:00:32;;;;;;;;;15.67;14.67;;;;;18.86;100.00;99725.94;6277414;20;3546133;-58
2023/06/24 01:03:01;;;;;;;;;14.00;13.00;;;;;18.92;100.00;99727.22;6277510;20;3519283;-56
2023/06/24 01:05:35;;;;;;;;;16.33;15.00;;;;;18.91;100.00;99723.66;6273225;20;3546213;-56
2023/06/24 01:08:04;;;;;;;;;14.67;14.67;;;;;19.19;100.00;99713.66;6278994;20;3530488;-54
2023/06/24 01:10:32;;;;;;;;;14.33;14.33;;;;;18.99;100.00;99704.72;6275170;20;3525408;-58
2023/06/24 01:12:59;;;;;;;;;13.50;12.50;;;;;18.94;100.00;99706.19;6279783;20;2491981;-57
2023/06/24 01:15:28;;;;;;;;;15.50;15.50;;;;;19.09;100.00;99723.75;6277646;20;2817947;-57
2023/06/24 01:18:13;;;;;;;;;13.50;13.50;;;;;18.90;100.00;99712.91;6283406;20;2500301;-54
2023/06/24 01:20:55;;;;;;;;;16.33;16.33;;;;;18.64;100.00;99703.50;6282746;20;3554532;-55
2023/06/24 01:24:01;;;;;;;;;14.50;14.50;;;;;18.95;100.00;99691.56;6279945;20;2492058;-57
2023/06/24 01:26:42;;;;;;;;;15.00;15.00;;;;;18.96;100.00;99694.13;6282569;20;2500343;-56
2023/06/24 01:29:44;;;;;;;;;15.00;15.00;;;;;18.82;100.00;99683.72;6282071;20;2817121;-56
2023/06/24 01:32:40;;;;;;;;;13.67;13.67;;;;;18.79;100.00;99667.69;6283181;20;3517091;-56
2023/06/24 01:35:16;;;;;;;;;18.00;18.00;;;;;18.78;100.00;99652.38;6311806;20;2715966;-54
2023/06/24 01:37:53;;;;;;;;;16.33;16.33;;;;;18.62;100.00;99661.97;6312081;20;3561754;-54
2023/06/24 01:40:31;;;;;;;;;15.50;15.50;;;;;18.83;100.00;99671.84;6284282;20;2491935;-57
2023/06/24 01:43:02;;;;;;;;;19.50;15.00;;;;;18.69;100.00;99683.13;6281559;20;2817017;-51
2023/06/24 01:45:42;;;;;;;;;13.40;11.60;;;;;18.87;100.00;99670.53;6306325;20;2792005;-56
2023/06/24 01:48:24;;;;;;;;;14.00;14.00;;;;;18.92;100.00;99668.22;6281933;20;3526447;-54
2023/06/24 01:50:59;;;;;;;;;17.00;17.00;;;;;18.93;100.00;99659.06;6283030;20;2834649;-53
2023/06/24 01:53:32;;;;;;;;;18.33;18.00;;;;;18.89;100.00;99648.63;6284461;20;3566922;-56
2023/06/24 01:56:03;;;;;;;;;17.33;17.33;;;;;19.02;100.00;99657.31;6278942;20;2484365;-57
2023/06/24 01:58:33;;;;;;;;;15.67;15.67;;;;;18.85;100.00;99653.50;6316252;20;3547285;-50
2023/06/24 02:01:03;;;;;;;;;18.33;17.33;;;;;18.80;100.00;99659.41;6314793;20;3567071;-52
2023/06/24 02:03:33;;;;;;;;;17.67;17.67;;;;;18.78;100.00;99649.66;6277793;20;3579544;-54
2023/06/24 02:06:03;;;;;;;;;16.00;16.00;;;;;18.81;100.00;99639.34;6277755;20;2819152;-52
2023/06/24 02:08:36;;;;;;;;;19.00;19.00;;;;;18.77;100.00;99642.50;6279590;20;2834613;-53
2023/06/24 02:11:05;;;;;;;;;15.50;15.50;;;;;18.72;100.00;99633.88;6279455;20;2819033;-53
2023/06/24 02:13:35;;;;;;;;;20.33;18.33;;;;;18.64;100.00;99640.06;6279308;20;3572157;-54
2023/06/24 02:16:06;;;;;;;;;20.00;19.33;;;;;18.73;100.00;99633.75;6278704;20;3569043;-53
2023/06/24 02:18:38;;;;;;;;;22.33;20.67;;;;;18.83;100.00;99636.47;6274075;20;2842022;-53
2023/06/24 02:21:06;;;;;;;;;22.00;18.67;;;;;18.97;100.00;99638.69;6318634;20;3574325;-52
2023/06/24 02:23:37;;;;;;;;;21.00;19.00;;;;;18.64;100.00;99642.78;6279970;20;2844033;-57
2023/06/24 02:26:06;;;;;;;;;19.00;18.00;;;;;18.73;100.00;99641.06;6285595;20;3448192;-56
2023/06/24 02:28:37;;;;;;;;;20.00;20.00;;;;;18.59;100.00;99642.38;6307896;20;2846198;-55
2023/06/24 02:31:06;;;;;;;;;22.00;20.00;;;;;18.70;100.00;99628.63;6312652;20;3580606;-56
2023/06/24 02:33:34;;;;;;;;;16.50;16.50;;;;;18.76;100.00;99619.03;6281831;20;2835064;-56
2023/06/24 02:36:02;;;;;;;;;19.33;19.33;;;;;18.71;100.00;99614.00;6277659;20;2500235;-55
2023/06/24 02:38:31;;;;;;;;;17.33;16.67;;;;;18.69;100.00;99607.00;6311438;20;3566971;-57
2023/06/24 02:41:00;;;;;;;;;19.50;17.50;;;;;18.80;100.00;99609.53;6280283;20;2828444;-56
2023/06/24 02:43:28;;;;;;;;;17.33;16.33;;;;;18.77;100.00;99618.00;6279876;20;2492106;-52
2023/06/24 02:46:00;;;;;;;;;18.00;14.00;;;;;18.67;100.00;99623.47;6313136;20;2816943;-57
2023/06/24 02:48:30;;;;;;;;;14.00;11.50;;;;;18.78;100.00;99634.19;6278188;20;2498222;-55
2023/06/24 02:51:01;;;;;;;;;16.00;13.50;;;;;18.61;100.00;99638.50;6282006;20;2802443;-57
2023/06/24 02:53:30;;;;;;;;;15.00;15.00;;;;;18.59;100.00;99654.13;6281006;20;3528484;-53
2023/06/24 02:55:59;;;;;;;;;15.00;13.00;;;;;18.59;100.00;99643.25;6313882;20;2483636;-58
2023/06/24 02:58:31;;;;;;;;;13.33;12.00;;;;;18.58;100.00;99649.66;6278157;20;3523164;-58
2023/06/24 03:01:02;;;;;;;;;14.00;12.33;;;;;18.53;100.00;99642.97;6279683;20;3527385;-53
2023/06/24 03:03:32;;;;;;;;;15.00;12.00;;;;;18.36;100.00;99642.72;6280394;20;3526510;-57
2023/06/24 03:06:02;;;;;;;;;17.00;15.33;;;;;18.44;100.00;99631.09;6280557;20;3547181;-54
2023/06/24 03:08:31;;;;;;;;;12.67;12.00;;;;;18.35;100.00;99623.81;6277527;20;3532588;-50
2023/06/24 03:10:59;;;;;;;;;13.67;11.67;;;;;18.21;100.00;99647.72;6282835;20;3525462;-51
2023/06/24 03:13:27;;;;;;;;;14.00;12.67;;;;;18.32;100.00;99665.72;6310457;20;3528387;-56
2023/06/24 03:15:55;;;;;;;;;17.00;14.33;;;;;18.40;100.00;99673.16;6277620;20;3554129;-58
2023/06/24 03:18:24;;;;;;;;;15.00;12.67;;;;;18.31;100.00;99674.91;6281900;20;3529505;-54
2023/06/24 03:20:52;;;;;;;;;13.00;12.67;;;;;18.28;100.00;99687.94;6314352;20;3514873;-55
2023/06/24 03:23:20;;;;;;;;;14.00;14.00;;;;;18.19;100.00;99684.19;6280012;20;2798347;-56
2023/06/24 03:25:49;;;;;;;;;15.33;13.33;;;;;18.24;100.00;99681.06;6311723;20;3530487;-56
2023/06/24 03:28:17;;;;;;;;;14.33;14.33;;;;;18.12;100.00;99688.50;6278841;20;3527357;-58
2023/06/24 03:30:44;;;;;;;;;17.00;15.50;;;;;18.15;100.00;99680.91;6281298;20;2483663;-56
2023/06/24 03:33:16;;;;;;;;;16.50;16.00;;;;;18.35;100.00;99683.63;6279153;20;2483643;-51
2023/06/24 03:35:45;;;;;;;;;15.00;13.67;;;;;18.33;100.00;99699.25;6282121;20;3542987;-57
2023/06/24 03:38:13;;;;;;;;;11.67;11.67;;;;;18.37;100.00;99700.66;6281777;20;3516932;-55
2023/06/24 03:40:41;;;;;;;;;17.00;15.00;;;;;18.39;100.00;99704.09;6285164;20;3538842;-55
2023/06/24 03:43:10;;;;;;;;;14.00;14.00;;;;;18.38;100.00;99702.38;6311495;20;3530500;-54
2023/06/24 03:45:38;;;;;;;;;16.67;14.00;;;;;18.31;100.00;99712.97;6316325;20;3539907;-55
2023/06/24 03:48:06;;;;;;;;;13.00;13.00;;;;;18.40;100.00;99712.13;6312491;20;2791948;-53
2023/06/24 03:50:34;;;;;;;;;14.50;14.50;;;;;18.56;100.00;99721.50;6313017;20;2810684;-53
2023/06/24 03:53:04;;;;;;;;;16.50;16.50;;;;;18.33;100.00;99720.97;6279340;20;2828449;-53
2023/06/24 03:55:32;;;;;;;;;17.67;17.67;;;;;18.33;100.00;99726.41;6284625;20;3576312;-52
2023/06/24 03:58:01;;;;;;;;;16.00;16.00;;;;;18.39;100.00;99725.84;6278195;20;2822305;-54
2023/06/24 04:00:29;;;;;;;;;20.00;18.50;;;;;18.33;100.00;99724.56;6281937;20;2831547;-55
2023/06/24 04:03:00;;;;;;;;;18.00;17.00;;;;;18.53;100.00;99721.81;6282028;20;2834639;-54
2023/06/24 04:05:29;;;;;;;;;17.00;17.00;;;;;18.51;100.00;99721.97;6281788;20;2836745;-57
2023/06/24 04:07:57;;;;;;;;;18.00;16.50;;;;;18.53;100.00;99719.94;6279231;20;2833681;-55
2023/06/24 04:10:25;;;;;;;;;15.50;14.50;;;;;18.59;100.00;99719.38;6281268;20;2807737;-55
2023/06/24 04:12:54;;;;;;;;;13.00;13.00;;;;;18.46;100.00;99716.09;6282311;20;3524439;-55
2023/06/24 04:15:22;;;;;;;;;13.67;13.67;;;;;18.50;100.00;99722.97;6279309;20;3531662;-53
2023/06/24 04:17:50;;;;;;;;;15.50;14.00;;;;;18.48;100.00;99727.69;6311986;20;2810835;-56
2023/06/24 04:20:18;;;;;;;;;13.67;13.67;;;;;18.55;100.00;99726.09;6279651;20;3508607;-61
2023/06/24 04:22:46;;;;;;;;;14.00;13.00;;;;;18.47;100.00;99728.69;6312166;20;3534841;-56
2023/06/24 04:25:14;;;;;;;;;14.67;13.00;;;;;18.68;100.00;99724.94;6281483;20;2807767;-54
2023/06/24 04:27:42;;;;;;;;;12.00;12.00;;;;;18.72;100.00;99726.38;6313113;20;2489841;-54
2023/06/24 04:30:10;;;;;;;;;11.50;10.00;;;;;18.69;100.00;99732.09;6282260;20;2788922;-56
2023/06/24 04:32:37;;;;;;;;;12.50;12.50;;;;;18.74;100.00;99722.50;6281731;20;2491911;-52
2023/06/24 04:35:05;;;;;;;;;13.67;12.67;;;;;18.65;100.00;99724.22;6279651;20;3516972;-55
2023/06/24 04:37:34;;;;;;;;;12.33;12.33;;;;;18.68;100.00;99714.06;6308806;20;3531514;-56
2023/06/24 04:40:02;;;;;;;;;14.00;13.00;;;;;19.00;100.00;99713.75;6275660;20;3532649;-52
2023/06/24 04:42:31;;;;;;;;;10.67;10.00;;;;;19.23;100.00;99714.25;6278726;20;3510799;-57
2023/06/24 04:44:58;;;;;;;;;14.50;14.50;;;;;19.34;100.00;99714.03;6278829;20;2803440;-56
2023/06/24 04:47:26;;;;;;;;;14.00;14.00;;;;;19.42;100.00;99716.88;6279389;20;3532662;-58
2023/06/24 04:49:53;;;;;;;;;13.00;13.00;;;;;19.38;100.00;99712.75;6275098;20;2491978;-57
2023/06/24 04:52:23;;;;;;;;;17.67;17.67;;;;;19.44;100.00;99719.44;6280534;20;3569047;-54
2023/06/24 04:54:52;;;;;;;;;16.67;16.00;;;;;19.54;100.00;99723.00;6280299;20;3557656;-56
2023/06/24 04:57:30;;;;;;;;;18.00;18.00;;;;;19.60;100.00;99726.97;6311746;20;3579440;-56
2023/06/24 04:59:58;;;;;;;;;17.33;17.33;;;;;19.42;100.00;99730.47;6281388;20;3562868;-58
2023/06/24 05:02:26;;;;;;;;;15.50;14.00;;;;;19.83;100.00;99728.31;6274472;20;2498196;-54
2023/06/24 05:04:53;;;;;;;;;15.00;13.00;;;;;19.77;100.00;99731.63;6280143;20;2496259;-57
2023/06/24 05:07:21;;;;;;;;;14.50;13.50;;;;;19.81;100.00;99741.22;6277529;20;2808630;-58
2023/06/24 05:09:51;;;;;;;;;16.00;15.33;;;;;20.11;100.00;99744.59;6276828;20;3544018;-60
2023/06/24 05:12:18;;;;;;;;;16.50;14.50;;;;;20.17;100.00;99747.59;6308890;20;2486147;-59
2023/06/24 05:14:52;;;;;;;;;15.00;14.00;;;;;20.17;100.00;99747.59;6278699;20;2483612;-59
2023/06/24 05:17:20;;;;;;;;;11.00;11.00;;;;;20.25;100.00;99748.66;6279935;20;3512809;-59
2023/06/24 05:19:48;;;;;;;;;14.00;12.33;;;;;20.52;100.00;99756.78;6278005;20;3509655;-60
2023/06/24 05:22:17;;;;;;;;;10.80;10.20;;;;;20.31;99.10;99753.50;6338225;20;2776421;-58
2023/06/24 05:24:45;;;;;;;;;7.00;7.00;;;;;20.57;98.63;99753.63;6280758;20;2743019;-60
2023/06/24 05:27:15;;;;;;;;;8.00;8.00;;;;;20.58;95.12;99750.72;6337136;20;2728508;-60
2023/06/24 05:29:44;;;;;;;;;8.40;7.40;;;;;20.94;94.87;99758.00;6330383;20;2746247;-60
2023/06/24 05:32:13;;;;;;;;;5.80;5.80;;;;;21.12;93.64;99763.41;6305780;20;2743031;-59
2023/06/24 05:34:42;;;;;;;;;5.80;5.80;;;;;20.94;93.31;99767.03;6305093;20;2736778;-60
2023/06/24 05:37:11;;;;;;;;;9.00;6.40;;;;;21.04;92.23;99777.88;6335977;20;2747776;-60
2023/06/24 05:39:39;;;;;;;;;5.33;5.33;;;;;21.21;89.88;99781.56;6290218;20;2736762;-60
2023/06/24 05:42:08;;;;;;;;;7.00;7.00;;;;;21.26;90.59;99781.94;6337296;20;2730489;-60
2023/06/24 05:44:37;;;;;;;;;5.20;5.20;;;;;21.33;90.01;99787.59;6336928;20;2746173;-60
2023/06/24 05:47:06;;;;;;;;;7.00;7.00;;;;;21.11;91.25;99786.25;6335561;20;2742077;-60
2023/06/24 05:49:34;;;;;;;;;6.00;6.00;;;;;21.08;90.28;99795.63;6282448;20;2739931;-58
2023/06/24 05:52:03;;;;;;;;;6.25;6.25;;;;;21.56;91.91;99807.91;6339705;20;2763896;-60
2023/06/24 05:54:32;;;;;;;;;5.80;5.80;;;;;22.23;87.22;99802.59;6338047;20;2739006;-60
2023/06/24 05:57:01;;;;;;;;;6.00;6.00;;;;;22.01;87.55;99806.78;6312693;20;2742984;-60
2023/06/24 05:59:30;;;;;;;;;8.00;6.40;;;;;21.99;89.41;99810.72;6334475;20;2748294;-60
2023/06/24 06:02:01;;;;;;;;;6.20;6.20;;;;;22.45;86.40;99803.84;6306730;20;2748672;-59
2023/06/24 06:04:30;;;;;;;;;4.20;4.00;;;;;22.16;87.83;99808.88;6311123;20;2748243;-61
2023/06/24 06:06:59;;;;;;;;;4.00;3.00;;;;;21.94;88.42;99819.41;6339995;20;2739887;-60
2023/06/24 06:09:28;;;;;;;;;5.60;5.60;;;;;22.25;86.34;99816.09;6310978;20;2747171;-60
2023/06/24 06:11:57;;;;;;;;;5.00;5.00;;;;;22.21;84.98;99814.72;6312674;20;2734794;-61
2023/06/24 06:14:25;;;;;;;;;3.00;3.00;;;;;22.04;85.19;99822.84;6317581;20;2742069;-59
2023/06/24 06:16:54;;;;;;;;;4.20;4.20;;;;;22.02;85.65;99826.78;6340518;20;2745082;-60
2023/06/24 06:19:23;;;;;;;;;4.00;4.00;;;;;22.06;83.62;99829.00;6305017;20;2750321;-59
2023/06/24 06:21:52;;;;;;;;;4.60;3.60;;;;;22.17;83.97;99830.59;6309315;20;2745136;-59
2023/06/24 06:24:21;;;;;;;;;4.80;3.80;;;;;22.44;83.53;99824.03;6311264;20;2747223;-58
2023/06/24 06:26:50;;;;;;;;;4.40;4.40;;;;;22.62;83.71;99828.50;6310864;20;2743050;-56
2023/06/24 06:29:19;;;;;;;;;4.80;4.00;;;;;22.90;82.97;99843.56;6307791;20;2748338;-59
2023/06/24 06:31:48;;;;;;;;;4.20;4.20;;;;;23.05;81.54;99848.44;6339476;20;2744285;-58
2023/06/24 06:34:16;;;;;;;;;3.00;3.00;;;;;22.80;84.25;99842.88;6317439;20;2739887;-59
2023/06/24 06:36:46;;;;;;;;;6.20;4.80;;;;;23.20;81.67;99846.72;6341791;20;2751409;-60
2023/06/24 06:39:15;;;;;;;;;3.60;3.60;;;;;22.85;81.28;99842.38;6310111;20;2754674;-60
2023/06/24 06:41:44;;;;;;;;;3.00;3.00;;;;;23.11;83.85;99836.78;6307565;20;2745229;-58
2023/06/24 06:44:13;;;;;;;;;4.60;3.80;;;;;22.77;83.14;99843.22;6308076;20;2747290;-60
2023/06/24 06:46:42;;;;;;;;;4.20;3.00;;;;;22.78;85.06;99844.97;6303377;20;2747289;-61
2023/06/24 06:49:11;;;;;;;;;4.00;3.60;;;;;22.63;84.74;99850.22;6302655;20;2739869;-62
2023/06/24 06:51:40;;;;;;;;;4.00;4.00;;;;;23.07;81.94;99849.13;6310787;20;2734658;-61
2023/06/24 06:54:09;;;;;;;;;4.60;4.00;;;;;23.58;79.74;99842.38;6341615;20;2744042;-62
2023/06/24 06:56:38;;;;;;;;;4.40;4.40;;;;;23.95;77.36;99842.81;6339968;20;2748226;-62
2023/06/24 06:59:07;;;;;;;;;3.60;3.60;;;;;24.55;72.63;99844.94;6302038;20;2751314;-65
2023/06/24 07:01:36;;;;;;;;;4.00;3.00;;;;;24.70;74.40;99845.03;6305869;20;2744088;-63
2023/06/24 07:04:05;;;;;;;;;6.00;5.00;;;;;24.52;70.55;99839.81;6306230;20;2747173;-62
2023/06/24 07:06:33;;;;;;;;;3.00;3.00;;;;;24.54;73.31;99843.25;6283302;20;2756674;-63
2023/06/24 07:09:04;;;;;;;;;6.00;5.00;;;;;23.90;75.96;99846.06;6362519;20;3464281;-61
2023/06/24 07:11:33;;;;;;;;;3.40;3.00;;;;;23.75;75.48;99843.22;6339975;20;2749274;-63
2023/06/24 07:14:02;;;;;;;;;3.00;3.00;;;;;23.99;75.88;99844.19;6311319;20;2753446;-61
2023/06/24 07:16:31;;;;;;;;;4.80;4.80;;;;;25.16;72.91;99843.13;6307879;20;2735813;-61
2023/06/24 07:19:00;;;;;;;;;2.20;2.20;;;;;25.07;70.96;99854.38;6299117;20;2749243;-59
2023/06/24 07:21:29;;;;;;;;;4.40;3.20;;;;;25.10;70.81;99843.00;6309868;20;2751467;-60
2023/06/24 07:23:58;;;;;;;;;4.60;4.20;;;;;25.33;68.89;99835.63;6304678;20;2743001;-63
2023/06/24 07:26:28;;;;;;;;;5.00;5.00;;;;;25.51;69.20;99840.75;6305696;20;2748640;-61
2023/06/24 07:29:00;;;;;;;;;3.67;3.33;;;;;26.02;69.77;99854.66;6279681;20;2751367;-61
2023/06/24 07:31:37;;;;;;;;;3.00;3.00;;;;;25.76;67.80;99846.84;6337852;20;2754458;-61
2023/06/24 07:34:06;;;;;;;;;2.80;2.80;;;;;26.28;65.59;99847.81;6309556;20;2745108;-61
2023/06/24 07:36:35;;;;;;;;;4.80;3.60;;;;;25.68;67.69;99846.09;6309378;20;2750298;-61
2023/06/24 07:39:05;;;;;;;;;5.40;3.60;;;;;25.65;66.47;99846.47;6305887;20;2742034;-62
2023/06/24 07:41:34;;;;;;;;;5.40;4.20;;;;;26.06;65.89;99850.47;6310155;20;2743029;-61
2023/06/24 07:44:02;;;;;;;;;3.00;3.00;;;;;25.73;67.94;99852.72;6288931;20;2730508;-62
2023/06/24 07:46:30;;;;;;;;;4.67;4.67;;;;;26.38;65.98;99856.59;6313908;20;2740943;-62
2023/06/24 07:48:58;;;;;;;;;3.33;3.33;;;;;26.80;63.53;99856.88;6309418;20;2739962;-61
2023/06/24 07:51:27;;;;;;;;;6.33;4.33;;;;;27.08;61.77;99862.47;6306596;20;2730624;-60
2023/06/24 07:53:55;;;;;;;;;4.00;4.00;;;;;26.80;63.23;99852.22;6314570;20;2750323;-61
2023/06/24 07:56:24;;;;;;;;;3.40;3.40;;;;;26.29;66.73;99855.00;6340526;20;2752431;-61
2023/06/24 07:58:53;;;;;;;;;4.60;3.60;;;;;26.87;64.68;99858.66;6308988;20;2745132;-62
2023/06/24 08:01:22;;;;;;;;;4.80;4.60;;;;;27.26;63.08;99862.91;6308297;20;2735804;-61
2023/06/24 08:03:51;;;;;;;;;4.40;4.40;;;;;27.11;66.74;99864.84;6308694;20;2746571;-62
2023/06/24 08:06:20;;;;;;;;;5.60;5.60;;;;;26.47;64.98;99863.72;6301535;20;2740072;-61
2023/06/24 08:08:56;;;;;;;;;6.20;5.20;;;;;26.00;67.02;99861.41;6300261;20;2740957;-62
2023/06/24 08:11:24;;;;;;;;;4.00;4.00;;;;;26.00;66.66;99862.25;6283845;20;2741005;-62
2023/06/24 08:13:52;;;;;;;;;7.33;6.00;;;;;26.14;67.22;99856.91;6317891;20;2743018;-62
2023/06/24 08:16:21;;;;;;;;;4.80;4.80;;;;;26.52;66.80;99868.69;6342449;20;2730511;-61
2023/06/24 08:18:49;;;;;;;;;4.67;4.33;;;;;26.52;64.86;99867.81;6283113;20;2748309;-61
2023/06/24 08:21:17;;;;;;;;;4.00;4.00;;;;;26.28;64.89;99864.31;6321342;20;2742011;-61
2023/06/24 08:23:46;;;;;;;;;5.00;5.00;;;;;26.65;61.98;99871.59;6317821;20;2737929;-61
2023/06/24 08:26:15;;;;;;;;;4.80;4.80;;;;;26.25;64.00;99875.69;6340000;20;2746132;-62
2023/06/24 08:28:47;;;;;;;;;4.00;4.00;;;;;26.64;62.86;99880.03;6304457;20;2733656;-61
2023/06/24 08:31:16;;;;;;;;;5.00;4.80;;;;;27.14;61.08;99880.97;6339617;20;2747145;-62
2023/06/24 08:33:45;;;;;;;;;4.00;4.00;;;;;26.53;60.48;99877.78;6309476;20;2748253;-61
2023/06/24 08:36:13;;;;;;;;;4.33;4.33;;;;;26.22;61.82;99870.56;6286741;20;2742072;-60
2023/06/24 08:38:41;;;;;;;;;3.00;3.00;;;;;26.57;63.55;99870.81;6316706;20;2742039;-61
2023/06/24 08:41:09;;;;;;;;;4.00;4.00;;;;;26.74;61.46;99871.47;6317351;20;2752462;-62
2023/06/24 08:43:39;;;;;;;;;5.00;5.00;;;;;26.35;62.05;99870.75;6339360;20;2745237;-63
2023/06/24 08:46:08;;;;;;;;;4.00;4.00;;;;;26.38;62.88;99869.50;6291056;20;2747302;-61
2023/06/24 08:48:42;;;;;;;;;3.80;3.80;;;;;27.09;61.94;99867.81;6339358;20;2747328;-61
2023/06/24 08:51:15;;;;;;;;;5.33;4.00;;;;;26.60;60.88;99870.47;6281373;20;2735732;-61
2023/06/24 08:53:45;;;;;;;;;7.00;5.20;;;;;27.06;60.93;99873.69;6336968;20;2742058;-61
2023/06/24 08:56:15;;;;;;;;;5.00;5.00;;;;;26.48;60.44;99868.16;6303108;20;2746329;-62
2023/06/24 08:58:44;;;;;;;;;4.33;4.33;;;;;27.08;62.37;99868.00;6281242;20;2741991;-61
2023/06/24 09:01:12;;;;;;;;;3.67;3.67;;;;;27.28;61.57;99860.81;6313426;20;2744034;-63
2023/06/24 09:03:41;;;;;;;;;4.20;4.20;;;;;27.02;62.41;99871.56;6336737;20;2738985;-60
2023/06/24 09:06:10;;;;;;;;;6.00;4.40;;;;;26.48;65.04;99870.06;6308486;20;2732692;-61
2023/06/24 09:08:41;;;;;;;;;6.00;6.00;;;;;26.12;64.18;99875.50;6306210;20;2746240;-61
2023/06/24 09:11:09;;;;;;;;;7.67;5.33;;;;;26.31;63.45;99874.09;6281713;20;2741054;-62
2023/06/24 09:13:37;;;;;;;;;9.67;8.33;;;;;26.72;63.85;99874.41;6315392;20;2761868;-60
2023/06/24 09:16:14;;;;;;;;;6.00;4.00;;;;;27.29;61.59;99875.44;6309392;20;2747226;-59
2023/06/24 09:18:48;;;;;;;;;6.00;4.67;;;;;27.15;59.96;99874.44;6311657;20;2736736;-59
2023/06/24 09:21:28;;;;;;;;;6.33;6.33;;;;;27.03;60.96;99885.13;6311790;20;2732619;-60
2023/06/24 09:23:58;;;;;;;;;4.33;4.33;;;;;27.71;58.84;99877.25;6313600;20;2736798;-59
2023/06/24 09:26:29;;;;;;;;;6.33;5.33;;;;;27.64;58.91;99875.50;6312900;20;2738985;-60
2023/06/24 09:28:57;;;;;;;;;6.00;6.00;;;;;26.84;59.89;99864.56;6313326;20;2739964;-61
2023/06/24 09:31:25;;;;;;;;;6.00;5.00;;;;;26.21;64.73;99866.97;6312506;20;2733134;-61
2023/06/24 09:33:57;;;;;;;;;5.00;5.00;;;;;26.30;63.26;99873.22;6311917;20;2746199;-60
2023/06/24 09:36:25;;;;;;;;;4.00;4.00;;;;;27.68;61.92;99883.19;6312193;20;2738890;-60
2023/06/24 09:39:07;;;;;;;;;6.00;6.00;;;;;26.85;61.09;99876.44;6315114;20;2738880;-60
2023/06/24 09:41:50;;;;;;;;;7.00;6.00;;;;;27.75;61.21;99873.06;6338163;20;2739919;-60
2023/06/24 09:44:21;;;;;;;;;4.67;4.33;;;;;28.27;58.04;99872.72;6288828;20;2736734;-61
2023/06/24 09:46:49;;;;;;;;;6.00;4.33;;;;;28.64;56.21;99872.28;6319912;20;2734682;-61
2023/06/24 09:49:19;;;;;;;;;5.40;5.40;;;;;27.58;56.48;99866.13;6341821;20;2734695;-60
2023/06/24 09:51:54;;;;;;;;;4.20;4.20;;;;;26.17;60.99;99859.28;6310568;20;2738846;-60
2023/06/24 09:54:27;;;;;;;;;7.67;7.67;;;;;27.95;59.33;99866.81;6286172;20;2746108;-60
2023/06/24 09:57:05;;;;;;;;;6.00;5.00;;;;;27.71;59.99;99871.75;6319572;20;2739886;-60
2023/06/24 09:59:34;;;;;;;;;4.67;4.67;;;;;27.60;56.61;99874.22;6315563;20;2738818;-58
2023/06/24 10:02:13;;;;;;;;;5.20;5.00;;;;;28.07;56.82;99865.22;6360840;20;2451353;-61
2023/06/24 10:04:41;;;;;;;;;6.00;6.00;;;;;28.70;55.30;99864.22;6319869;20;2741975;-60
2023/06/24 10:07:09;;;;;;;;;6.67;5.33;;;;;27.70;58.03;99861.78;6326178;20;2742024;-60
2023/06/24 10:09:38;;;;;;;;;5.00;5.00;;;;;28.41;58.68;99857.91;6317012;20;2746217;-61
2023/06/24 10:12:07;;;;;;;;;7.00;7.00;;;;;28.25;57.26;99861.88;6316449;20;2744130;-60
2023/06/24 10:15:31;;;;;;;;;5.00;5.00;;;;;29.17;55.37;99848.59;6315913;20;2737816;-61
2023/06/24 10:18:03;;;;;;;;;5.67;5.67;;;;;28.18;56.68;99848.06;6309159;20;2740960;-60
2023/06/24 10:20:38;;;;;;;;;4.67;4.67;;;;;27.78;60.82;99846.97;6323592;20;2729457;-60
2023/06/24 10:23:06;;;;;;;;;5.33;5.33;;;;;27.23;60.73;99857.78;6315796;20;2734699;-61
2023/06/24 10:25:38;;;;;;;;;6.67;6.00;;;;;28.00;59.79;99848.59;6313851;20;2742169;-61
2023/06/24 10:28:06;;;;;;;;;4.00;4.00;;;;;28.19;58.44;99846.16;6319043;20;2740005;-61
2023/06/24 10:30:36;;;;;;;;;6.33;6.33;;;;;28.45;57.05;99839.91;6317774;20;2730506;-62
2023/06/24 10:33:13;;;;;;;;;7.00;5.00;;;;;27.81;59.25;99841.06;6316019;20;2743042;-62
2023/06/24 10:35:43;;;;;;;;;8.00;6.67;;;;;28.66;57.85;99837.00;6307337;20;2748315;-61
2023/06/24 10:38:11;;;;;;;;;7.00;7.00;;;;;28.60;56.53;99837.84;6317914;20;2756638;-60
2023/06/24 10:40:43;;;;;;;;;7.00;7.00;;;;;28.66;57.12;99837.00;6317292;20;2744153;-60
2023/06/24 10:43:24;;;;;;;;;5.67;5.67;;;;;27.51;59.95;99846.75;6318302;20;2746156;-60
2023/06/24 10:45:58;;;;;;;;;6.00;6.00;;;;;27.91;57.68;99837.91;6318774;20;2737780;-62
2023/06/24 10:48:26;;;;;;;;;6.67;6.67;;;;;28.81;55.71;99838.75;6318059;20;2736794;-63
2023/06/24 10:50:54;;;;;;;;;5.67;5.33;;;;;28.64;56.91;99832.75;6311183;20;2744208;-60
2023/06/24 10:53:22;;;;;;;;;6.00;6.00;;;;;28.61;55.83;99833.16;6318119;20;2738941;-60
2023/06/24 10:55:50;;;;;;;;;6.00;5.00;;;;;27.72;57.23;99837.56;6316048;20;2744036;-60
2023/06/24 10:58:18;;;;;;;;;6.00;5.00;;;;;27.46;58.72;99838.25;6316508;20;2735703;-61
2023/06/24 11:00:46;;;;;;;;;6.00;6.00;;;;;27.35;57.84;99838.78;6321429;20;2742114;-62
2023/06/24 11:03:17;;;;;;;;;8.00;6.00;;;;;28.48;55.49;99839.50;6316450;20;2741981;-62
2023/06/24 11:05:48;;;;;;;;;5.00;5.00;;;;;27.86;57.84;99845.94;6317702;20;2732745;-61
2023/06/24 11:08:17;;;;;;;;;4.80;4.00;;;;;27.65;58.93;99844.97;6341984;20;2730858;-61
2023/06/24 11:10:47;;;;;;;;;6.33;5.33;;;;;29.02;56.61;99852.38;6285441;20;2746204;-62
2023/06/24 11:13:15;;;;;;;;;7.00;5.00;;;;;27.43;58.65;99846.06;6316278;20;2743032;-59
2023/06/24 11:15:43;;;;;;;;;4.00;4.00;;;;;28.06;59.29;99841.41;6313843;20;2735723;-60
2023/06/24 11:18:11;;;;;;;;;6.00;5.00;;;;;27.87;58.87;99839.41;6317370;20;2732591;-59
2023/06/24 11:20:40;;;;;;;;;6.33;6.33;;;;;27.35;60.63;99839.63;6316388;20;2740953;-60